createdAt,value
2019-02-07T00:00:33.665Z,101115.86
2019-02-07T00:05:26.533Z,101104.75
2019-02-07T00:10:19.926Z,101085.67
2019-02-07T00:15:13.908Z,101075.17
2019-02-07T00:20:07.904Z,101062.31
2019-02-07T00:25:00.772Z,101058.05
2019-02-07T00:29:53.973Z,101048.08
2019-02-07T00:34:46.827Z,101058.73
2019-02-07T00:39:39.728Z,101037.06
2019-02-07T00:44:32.578Z,101029.36
2019-02-07T00:49:25.547Z,101021.33
2019-02-07T00:54:18.785Z,101008.83
2019-02-07T00:59:11.643Z,101000.54
2019-02-07T01:04:04.710Z,100994.64
2019-02-07T01:08:57.558Z,100984.85
2019-02-07T01:13:50.813Z,100980.74
2019-02-07T01:18:43.636Z,100953.44
2019-02-07T01:23:36.529Z,100963.18
2019-02-07T01:28:29.446Z,100957.44
2019-02-07T01:33:22.721Z,100956.34
2019-02-07T01:38:15.772Z,100952.48
2019-02-07T01:43:08.659Z,100953.61
2019-02-07T01:48:01.948Z,100948.88
2019-02-07T01:52:55.243Z,100940.20
2019-02-07T01:57:48.093Z,100926.43
2019-02-07T02:02:41.176Z,100928.68
2019-02-07T02:07:34.055Z,100908.59
2019-02-07T02:12:27.326Z,100904.53
2019-02-07T02:17:20.219Z,100892.21
2019-02-07T02:22:14.341Z,100878.83
2019-02-07T02:27:08.938Z,100864.41
2019-02-07T02:32:02.534Z,100851.09
2019-02-07T02:36:55.405Z,100850.02
2019-02-07T02:41:48.255Z,100840.70
2019-02-07T02:46:41.233Z,100834.80
2019-02-07T02:51:34.519Z,100825.18
2019-02-07T02:56:27.402Z,100812.33
2019-02-07T03:01:45.954Z,100808.95
2019-02-07T03:06:57.162Z,100801.27
2019-02-07T03:12:21.894Z,100788.20
2019-02-07T03:17:46.420Z,100780.69
2019-02-07T03:22:55.373Z,100762.25
2019-02-07T03:28:01.266Z,100759.16
2019-02-07T03:33:14.085Z,100759.53
2019-02-07T03:38:20.620Z,100748.08
2019-02-07T03:43:29.099Z,100733.42
2019-02-07T03:48:44.643Z,100734.64
2019-02-07T03:53:55.785Z,100718.31
2019-02-07T03:59:08.219Z,100709.66
2019-02-07T04:04:23.652Z,100705.45
2019-02-07T04:09:40.472Z,100692.05
2019-02-07T04:14:51.763Z,100693.81
2019-02-07T04:20:06.304Z,100687.20
2019-02-07T04:25:22.008Z,100665.38
2019-02-07T04:30:33.747Z,100646.16
2019-02-07T04:35:49.229Z,100645.28
2019-02-07T04:41:10.701Z,100635.33
2019-02-07T04:46:26.386Z,100640.94
2019-02-07T04:51:41.898Z,100641.09
2019-02-07T04:56:46.338Z,100617.13
2019-02-07T05:02:07.774Z,100615.41
2019-02-07T05:07:32.541Z,100612.31
2019-02-07T05:12:57.044Z,100596.08
2019-02-07T05:18:08.119Z,100585.84
2019-02-07T05:23:23.751Z,100583.71
2019-02-07T05:28:34.846Z,100573.91
2019-02-07T05:33:56.691Z,100565.72
2019-02-07T05:39:05.107Z,100552.42
2019-02-07T05:44:16.509Z,100542.59
2019-02-07T05:49:18.579Z,100525.14
2019-02-07T05:54:36.687Z,100518.84
2019-02-07T05:59:54.652Z,100507.61
2019-02-07T06:05:05.657Z,100500.73
2019-02-07T06:10:24.376Z,100498.72
2019-02-07T06:15:43.017Z,100492.76
2019-02-07T06:20:55.747Z,100494.92
2019-02-07T06:26:11.525Z,100480.69
2019-02-07T06:31:13.322Z,100476.34
2019-02-07T06:36:24.824Z,100476.92
2019-02-07T06:41:46.685Z,100475.44
2019-02-07T06:46:57.639Z,100466.88
2019-02-07T06:52:02.600Z,100465.49
2019-02-07T06:57:16.952Z,100469.36
2019-02-07T07:02:38.107Z,100466.27
2019-02-07T07:08:06.463Z,100463.36
2019-02-07T07:13:24.780Z,100463.53
2019-02-07T07:18:40.503Z,100453.20
2019-02-07T07:23:56.109Z,100453.23
2019-02-07T07:29:07.566Z,100454.36
2019-02-07T07:34:20.031Z,100459.03
2019-02-07T07:39:31.328Z,100454.80
2019-02-07T07:44:59.142Z,100455.64
2019-02-07T07:50:27.122Z,100460.76
2019-02-07T07:55:42.392Z,100459.48
2019-02-07T08:00:58.873Z,100461.97
2019-02-07T08:06:11.337Z,100470.45
2019-02-07T08:11:22.781Z,100470.25
2019-02-07T08:16:34.237Z,100474.26
2019-02-07T08:21:44.482Z,100473.63
2019-02-07T08:26:49.749Z,100470.67
2019-02-07T08:32:04.485Z,100466.53
2019-02-07T08:37:17.154Z,100467.53
2019-02-07T08:42:28.368Z,100469.57
2019-02-07T08:47:39.310Z,100467.17
2019-02-07T08:52:55.081Z,100465.00
2019-02-07T08:57:56.748Z,100476.50
2019-02-07T09:03:01.455Z,100490.98
2019-02-07T09:08:16.995Z,100494.11
2019-02-07T09:13:17.828Z,100506.06
2019-02-07T09:18:21.598Z,100506.86
2019-02-07T09:23:34.073Z,100511.03
2019-02-07T09:28:49.407Z,100525.33
2019-02-07T09:34:04.770Z,100524.09
2019-02-07T09:39:20.201Z,100526.91
2019-02-07T09:44:26.683Z,100527.11
2019-02-07T09:49:45.060Z,100528.97
2019-02-07T09:55:06.730Z,100526.31
2019-02-07T10:00:08.756Z,100533.33
2019-02-07T10:05:19.795Z,100538.05
2019-02-07T10:10:32.271Z,100539.20
2019-02-07T10:15:38.043Z,100545.41
2019-02-07T10:20:59.548Z,100558.75
2019-02-07T10:26:21.214Z,100554.36
2019-02-07T10:31:31.506Z,100548.63
2019-02-07T10:36:43.008Z,100513.50
2019-02-07T10:41:54.273Z,100531.36
2019-02-07T10:47:05.612Z,100542.33
2019-02-07T10:52:35.370Z,100540.16
2019-02-07T10:58:00.053Z,100535.28
2019-02-07T11:03:11.773Z,100523.03
2019-02-07T11:08:30.112Z,100529.83
2019-02-07T11:13:46.759Z,100532.65
2019-02-07T11:18:55.784Z,100528.30
2019-02-07T11:24:11.607Z,100519.89
2019-02-07T11:29:33.211Z,100502.34
2019-02-07T11:34:47.592Z,100499.92
2019-02-07T11:40:03.116Z,100507.61
2019-02-07T11:45:27.657Z,100509.65
2019-02-07T11:50:50.840Z,100506.55
2019-02-07T11:55:55.200Z,100504.44
2019-02-07T12:01:12.866Z,100499.41
2019-02-07T12:06:31.463Z,100515.07
2019-02-07T12:11:54.568Z,100507.84
2019-02-07T12:17:14.995Z,100485.70
2019-02-07T12:22:26.465Z,100485.21
2019-02-07T12:27:38.924Z,100498.52
2019-02-07T12:32:38.871Z,100495.91
2019-02-07T12:37:43.318Z,100497.12
2019-02-07T12:43:10.885Z,100487.02
2019-02-07T12:53:35.193Z,100480.75
2019-02-07T12:58:46.537Z,100481.44
2019-02-07T13:03:59.009Z,100472.59
2019-02-07T13:09:10.440Z,100472.14
2019-02-07T13:14:23.260Z,100468.81
2019-02-07T13:19:39.977Z,100464.64
2019-02-07T13:24:49.682Z,100460.48
2019-02-07T13:30:01.002Z,100454.91
2019-02-07T13:35:12.398Z,100442.25
2019-02-07T13:40:26.507Z,100439.13
2019-02-07T13:45:32.267Z,100448.47
2019-02-07T13:50:56.760Z,100459.83
2019-02-07T13:56:25.070Z,100467.63
2019-02-07T14:01:36.572Z,100465.39
2019-02-07T14:06:38.959Z,100471.08
2019-02-07T14:12:00.232Z,100476.11
2019-02-07T14:17:10.105Z,100484.72
2019-02-07T14:22:21.563Z,100496.52
2019-02-07T14:27:32.906Z,100492.14
2019-02-07T14:32:57.854Z,100499.86
2019-02-07T14:38:01.197Z,100511.34
2019-02-07T14:43:12.982Z,100502.42
2019-02-07T14:48:06.062Z,100501.21
2019-02-07T14:53:01.901Z,100525.02
2019-02-07T14:57:53.820Z,100533.84
2019-02-07T15:02:46.803Z,100540.09
2019-02-07T15:07:40.019Z,100534.68
2019-02-07T15:12:32.905Z,100544.23
2019-02-07T15:17:27.451Z,100556.04
2019-02-07T15:22:20.725Z,100547.55
2019-02-07T15:27:13.600Z,100554.19
2019-02-07T15:32:06.618Z,100546.78
2019-02-07T15:36:59.480Z,100555.23
2019-02-07T15:41:52.342Z,100566.46
2019-02-07T15:46:45.312Z,100569.34
2019-02-07T15:51:38.865Z,100565.24
2019-02-07T15:56:31.901Z,100568.76
2019-02-07T16:01:47.708Z,100572.92
2019-02-07T16:06:40.572Z,100581.73
2019-02-07T16:11:33.887Z,100585.95
2019-02-07T16:16:26.742Z,100575.00
2019-02-07T16:21:19.614Z,100581.23
2019-02-07T16:26:12.484Z,100589.48
2019-02-07T16:31:07.549Z,100586.20
2019-02-07T16:36:00.442Z,100585.54
2019-02-07T16:40:53.454Z,100576.22
2019-02-07T16:45:46.728Z,100578.11
2019-02-07T16:50:39.629Z,100587.41
2019-02-07T16:55:32.516Z,100603.85
2019-02-07T17:00:27.051Z,100614.83
2019-02-07T17:05:22.440Z,100619.21
2019-02-07T17:10:20.058Z,100615.37
2019-02-07T17:15:14.269Z,100630.06
2019-02-07T17:20:14.956Z,100633.52
2019-02-07T17:25:08.205Z,100630.34
2019-02-07T17:30:01.106Z,100635.02
2019-02-07T17:34:53.927Z,100638.08
2019-02-07T17:39:47.312Z,100643.67
2019-02-07T17:44:40.293Z,100647.88
2019-02-07T17:49:33.203Z,100649.69
2019-02-07T17:54:26.094Z,100658.62
2019-02-07T17:59:20.855Z,100668.79
2019-02-07T18:04:13.725Z,100692.02
2019-02-07T18:09:08.711Z,100711.45
2019-02-07T18:14:01.535Z,100716.39
2019-02-07T18:18:54.473Z,100718.67
2019-02-07T18:23:47.328Z,100718.78
2019-02-07T18:28:40.235Z,100728.47
2019-02-07T18:33:33.322Z,100735.91
2019-02-07T18:38:26.199Z,100738.31
2019-02-07T18:43:19.056Z,100751.48
2019-02-07T18:48:11.943Z,100762.24
2019-02-07T18:53:05.636Z,100767.53
2019-02-07T18:57:58.571Z,100767.74
2019-02-07T19:02:51.487Z,100775.11
2019-02-07T19:07:44.561Z,100778.47
2019-02-07T19:12:37.489Z,100788.10
2019-02-07T19:17:30.358Z,100792.41
2019-02-07T19:22:23.259Z,100790.77
2019-02-07T19:27:16.123Z,100796.35
2019-02-07T19:32:09.000Z,100805.30
2019-02-07T19:37:03.692Z,100806.80
2019-02-07T19:41:56.770Z,100817.35
2019-02-07T19:46:49.673Z,100817.16
2019-02-07T19:51:42.548Z,100823.80
2019-02-07T19:56:35.487Z,100828.45
2019-02-07T20:01:28.762Z,100831.43
2019-02-07T20:06:21.640Z,100827.18
2019-02-07T20:11:14.495Z,100833.94
2019-02-07T20:16:08.651Z,100839.27
2019-02-07T20:21:01.515Z,100842.89
2019-02-07T20:25:54.736Z,100849.09
2019-02-07T20:35:42.039Z,100853.97
2019-02-07T20:40:34.939Z,100851.88
2019-02-07T20:45:28.140Z,100857.26
2019-02-07T20:50:23.553Z,100855.61
2019-02-07T20:55:16.858Z,100854.14
2019-02-07T21:00:35.592Z,100856.42
2019-02-07T21:05:30.360Z,100854.17
2019-02-07T21:10:24.675Z,100860.58
2019-02-07T21:15:18.978Z,100869.59
2019-02-07T21:20:16.894Z,100868.61
2019-02-07T21:25:19.886Z,100877.41
2019-02-07T21:30:17.398Z,100880.03
2019-02-07T21:35:14.237Z,100888.68
2019-02-07T21:40:10.886Z,100882.74
2019-02-07T21:45:06.860Z,100904.45
2019-02-07T21:50:04.140Z,100904.39
2019-02-07T21:54:57.191Z,100910.78
2019-02-07T21:59:50.067Z,100918.01
2019-02-07T22:04:43.855Z,100916.79
2019-02-07T22:09:40.248Z,100922.34
2019-02-07T22:14:33.116Z,100927.12
2019-02-07T22:19:26.423Z,100935.02
2019-02-07T22:24:19.682Z,100937.75
2019-02-07T22:29:14.476Z,100943.81
2019-02-07T22:34:11.292Z,100950.63
2019-02-07T22:39:07.102Z,100954.34
2019-02-07T22:43:59.961Z,100955.78
2019-02-07T22:48:52.850Z,100956.73
2019-02-07T22:53:45.728Z,100959.65
2019-02-07T22:58:38.615Z,100957.70
2019-02-07T23:03:31.557Z,100953.19
2019-02-07T23:08:24.564Z,100961.25
2019-02-07T23:13:18.641Z,100955.23
2019-02-07T23:18:11.822Z,100961.19
2019-02-07T23:23:05.784Z,100954.96
2019-02-07T23:27:59.180Z,100958.27
2019-02-07T23:32:57.916Z,100954.84
2019-02-07T23:37:53.171Z,100962.55
2019-02-07T23:42:49.271Z,100966.91
2019-02-07T23:47:43.773Z,100967.27
2019-02-07T23:52:36.765Z,100971.28
2019-02-07T23:57:29.783Z,100966.95
